Time,TemperatureF,DewpointF,PressureIn,WindDirection,WindDirectionDegrees,WindSpeedMPH,WindSpeedGustMPH,Humidity,HourlyPrecipIn,Conditions,Clouds,dailyrainin,SoftwareType,DateUTC
2013-04-18 00:12:00,54.0,40.0,-100.00,North,-999,-999.0,-999.0,59,0.00,,,0.00,,2013-04-18 07:12:00,
2013-04-18 00:22:00,54.0,40.0,-100.00,North,-999,-999.0,-999.0,59,0.00,,,0.00,,2013-04-18 07:22:00,
2013-04-18 00:32:00,54.0,40.0,-100.00,North,-999,-999.0,-999.0,59,0.00,,,0.00,,2013-04-18 07:32:00,
2013-04-18 00:42:00,54.0,40.0,-100.00,North,-999,-999.0,-999.0,59,0.00,,,0.00,,2013-04-18 07:42:00,
2013-04-18 01:12:00,52.0,42.0,-100.00,North,-999,-999.0,-999.0,68,0.00,,,0.00,,2013-04-18 08:12:00,
2013-04-18 01:22:00,52.0,42.0,-100.00,North,-999,-999.0,-999.0,68,0.00,,,0.00,,2013-04-18 08:22:00,
2013-04-18 01:32:00,52.0,42.0,-100.00,North,-999,-999.0,-999.0,68,0.00,,,0.00,,2013-04-18 08:32:00,
2013-04-18 01:42:00,52.0,42.0,-100.00,North,-999,-999.0,-999.0,68,0.00,,,0.00,,2013-04-18 08:42:00,
2013-04-18 02:12:00,52.0,41.0,-100.00,North,-999,-999.0,-999.0,65,0.00,,,0.00,,2013-04-18 09:12:00,
2013-04-18 02:22:00,52.0,41.0,-100.00,North,-999,-999.0,-999.0,65,0.00,,,0.00,,2013-04-18 09:22:00,
2013-04-18 02:32:00,52.0,41.0,-100.00,North,-999,-999.0,-999.0,65,0.00,,,0.00,,2013-04-18 09:32:00,
2013-04-18 02:42:00,52.0,41.0,-100.00,North,-999,-999.0,-999.0,65,0.00,,,0.00,,2013-04-18 09:42:00,
2013-04-18 03:12:00,51.0,41.0,-100.00,North,-999,-999.0,-999.0,67,0.00,,,0.00,,2013-04-18 10:12:00,
2013-04-18 03:23:00,51.0,41.0,-100.00,North,-999,-999.0,-999.0,67,0.00,,,0.00,,2013-04-18 10:23:00,
2013-04-18 03:32:00,51.0,41.0,-100.00,North,-999,-999.0,-999.0,67,0.00,,,0.00,,2013-04-18 10:32:00,
2013-04-18 03:42:00,51.0,41.0,-100.00,North,-999,-999.0,-999.0,67,0.00,,,0.00,,2013-04-18 10:42:00,
2013-04-18 04:12:00,52.0,40.0,-100.00,North,-999,-999.0,-999.0,65,0.00,,,0.00,,2013-04-18 11:12:00,
2013-04-18 04:22:00,52.0,40.0,-100.00,North,-999,-999.0,-999.0,65,0.00,,,0.00,,2013-04-18 11:22:00,
2013-04-18 04:32:00,52.0,40.0,-100.00,North,-999,-999.0,-999.0,65,0.00,,,0.00,,2013-04-18 11:32:00,
2013-04-18 04:42:00,52.0,40.0,-100.00,North,-999,-999.0,-999.0,65,0.00,,,0.00,,2013-04-18 11:42:00,
2013-04-18 05:12:00,52.0,40.0,-100.00,North,-999,-999.0,-999.0,64,0.00,,,0.00,,2013-04-18 12:12:00,
2013-04-18 05:22:00,52.0,40.0,-100.00,North,-999,-999.0,-999.0,64,0.00,,,0.00,,2013-04-18 12:22:00,
2013-04-18 05:32:00,52.0,40.0,-100.00,North,-999,-999.0,-999.0,64,0.00,,,0.00,,2013-04-18 12:32:00,
2013-04-18 05:42:00,52.0,40.0,-100.00,North,-999,-999.0,-999.0,64,0.00,,,0.00,,2013-04-18 12:42:00,
2013-04-18 06:12:00,51.0,40.0,-100.00,North,-999,-999.0,-999.0,65,0.00,,,0.00,,2013-04-18 13:12:00,
2013-04-18 06:22:00,51.0,40.0,-100.00,North,-999,-999.0,-999.0,65,0.00,,,0.00,,2013-04-18 13:22:00,
2013-04-18 06:32:00,51.0,40.0,-100.00,North,-999,-999.0,-999.0,65,0.00,,,0.00,,2013-04-18 13:32:00,
2013-04-18 06:42:00,51.0,40.0,-100.00,North,-999,-999.0,-999.0,65,0.00,,,0.00,,2013-04-18 13:42:00,
2013-04-18 07:12:00,50.0,41.0,-100.00,North,-999,-999.0,-999.0,72,0.00,,,0.00,,2013-04-18 14:12:00,
2013-04-18 07:22:00,50.0,41.0,-100.00,North,-999,-999.0,-999.0,72,0.00,,,0.00,,2013-04-18 14:22:00,
2013-04-18 07:32:00,50.0,41.0,-100.00,North,-999,-999.0,-999.0,72,0.00,,,0.00,,2013-04-18 14:32:00,
2013-04-18 07:42:00,50.0,41.0,-100.00,North,-999,-999.0,-999.0,72,0.00,,,0.00,,2013-04-18 14:42:00,
2013-04-18 08:12:00,52.0,42.0,-100.00,North,-999,-999.0,-999.0,68,0.00,,,0.00,,2013-04-18 15:12:00,
2013-04-18 08:22:00,52.0,42.0,-100.00,North,-999,-999.0,-999.0,68,0.00,,,0.00,,2013-04-18 15:22:00,
2013-04-18 08:33:00,52.0,42.0,-100.00,North,-999,-999.0,-999.0,68,0.00,,,0.00,,2013-04-18 15:33:00,
2013-04-18 08:42:00,52.0,42.0,-100.00,North,-999,-999.0,-999.0,68,0.00,,,0.00,,2013-04-18 15:42:00,
2013-04-18 09:13:00,57.0,44.0,-100.00,North,-999,-999.0,-999.0,62,0.00,,,0.00,,2013-04-18 16:13:00,
2013-04-18 09:22:00,57.0,44.0,-100.00,North,-999,-999.0,-999.0,62,0.00,,,0.00,,2013-04-18 16:22:00,
2013-04-18 09:33:00,57.0,44.0,-100.00,North,-999,-999.0,-999.0,62,0.00,,,0.00,,2013-04-18 16:33:00,
2013-04-18 09:42:00,57.0,44.0,-100.00,North,-999,-999.0,-999.0,62,0.00,,,0.00,,2013-04-18 16:42:00,
2013-04-18 10:12:00,61.0,38.0,-100.00,North,-999,-999.0,-999.0,43,0.00,,,0.00,,2013-04-18 17:12:00,
2013-04-18 10:22:00,61.0,38.0,-100.00,North,-999,-999.0,-999.0,43,0.00,,,0.00,,2013-04-18 17:22:00,
2013-04-18 10:33:00,61.0,38.0,-100.00,North,-999,-999.0,-999.0,43,0.00,,,0.00,,2013-04-18 17:33:00,
2013-04-18 10:42:00,61.0,38.0,-100.00,North,-999,-999.0,-999.0,43,0.00,,,0.00,,2013-04-18 17:42:00,
2013-04-18 11:12:00,66.0,30.0,-100.00,North,-999,-999.0,-999.0,26,0.00,,,0.00,,2013-04-18 18:12:00,
2013-04-18 12:12:00,68.0,32.0,-100.00,North,-999,-999.0,-999.0,26,0.00,,,0.00,,2013-04-18 19:12:00,
2013-04-18 13:12:00,66.0,42.0,-100.00,North,-999,-999.0,-999.0,42,0.00,,,0.00,,2013-04-18 20:12:00,
2013-04-18 13:22:00,66.0,42.0,-100.00,North,-999,-999.0,-999.0,42,0.00,,,0.00,,2013-04-18 20:22:00,
2013-04-18 13:32:00,66.0,42.0,-100.00,North,-999,-999.0,-999.0,42,0.00,,,0.00,,2013-04-18 20:32:00,
2013-04-18 13:42:00,66.0,42.0,-100.00,North,-999,-999.0,-999.0,42,0.00,,,0.00,,2013-04-18 20:42:00,
2013-04-18 14:12:00,67.0,33.0,-100.00,North,-999,-999.0,-999.0,29,-99.99,,,0.00,,2013-04-18 21:12:00,
2013-04-18 14:22:00,67.0,33.0,-100.00,North,-999,-999.0,-999.0,29,-99.99,,,0.00,,2013-04-18 21:22:00,
2013-04-18 15:13:00,66.0,37.0,-100.00,North,-999,-999.0,-999.0,35,-99.99,,,0.00,,2013-04-18 22:13:00,
2013-04-18 15:22:00,66.0,37.0,-100.00,North,-999,-999.0,-999.0,35,-99.99,,,0.00,,2013-04-18 22:22:00,
2013-04-18 15:32:00,66.0,37.0,-100.00,North,-999,-999.0,-999.0,35,-99.99,,,0.00,,2013-04-18 22:32:00,
2013-04-18 15:42:00,66.0,37.0,-100.00,North,-999,-999.0,-999.0,35,-99.99,,,0.00,,2013-04-18 22:42:00,
2013-04-18 16:11:00,62.0,42.0,-100.00,North,-999,-999.0,-999.0,48,-99.99,,,0.00,,2013-04-18 23:11:00,
2013-04-18 16:21:00,62.0,42.0,-100.00,North,-999,-999.0,-999.0,48,-99.99,,,0.00,,2013-04-18 23:21:00,
2013-04-18 16:32:00,62.0,42.0,-100.00,North,-999,-999.0,-999.0,48,-99.99,,,0.00,,2013-04-18 23:32:00,
2013-04-18 16:42:00,62.0,42.0,-100.00,North,-999,-999.0,-999.0,48,-99.99,,,0.00,,2013-04-18 23:42:00,
2013-04-18 17:12:00,61.0,43.0,-100.00,North,-999,-999.0,-999.0,51,0.00,,,0.00,,2013-04-19 00:12:00,
2013-04-18 17:21:00,61.0,43.0,-100.00,North,-999,-999.0,-999.0,51,0.00,,,0.00,,2013-04-19 00:21:00,
2013-04-18 17:32:00,61.0,43.0,-100.00,North,-999,-999.0,-999.0,51,0.00,,,0.00,,2013-04-19 00:32:00,
2013-04-18 17:42:00,61.0,43.0,-100.00,North,-999,-999.0,-999.0,51,0.00,,,0.00,,2013-04-19 00:42:00,
2013-04-18 18:11:00,61.0,42.0,-100.00,North,-999,-999.0,-999.0,50,0.00,,,0.00,,2013-04-19 01:11:00,
2013-04-18 18:21:00,61.0,42.0,-100.00,North,-999,-999.0,-999.0,50,0.00,,,0.00,,2013-04-19 01:21:00,
2013-04-18 18:31:00,61.0,42.0,-100.00,North,-999,-999.0,-999.0,50,0.00,,,0.00,,2013-04-19 01:31:00,
2013-04-18 18:42:00,61.0,42.0,-100.00,North,-999,-999.0,-999.0,50,0.00,,,0.00,,2013-04-19 01:42:00,
2013-04-18 19:11:00,57.0,45.0,-100.00,North,-999,-999.0,-999.0,64,0.00,,,0.00,,2013-04-19 02:11:00,
2013-04-18 19:21:00,57.0,45.0,-100.00,North,-999,-999.0,-999.0,64,0.00,,,0.00,,2013-04-19 02:21:00,
2013-04-18 19:32:00,57.0,45.0,-100.00,North,-999,-999.0,-999.0,64,0.00,,,0.00,,2013-04-19 02:32:00,
2013-04-18 19:42:00,57.0,45.0,-100.00,North,-999,-999.0,-999.0,64,0.00,,,0.00,,2013-04-19 02:42:00,
2013-04-18 19:43:00,55.0,44.0,-100.00,North,-999,-999.0,-999.0,67,0.00,,,0.00,,2013-04-19 02:43:00,
2013-04-18 20:11:00,55.0,44.0,-100.00,North,-999,-999.0,-999.0,67,0.00,,,0.00,,2013-04-19 03:11:00,
2013-04-18 20:21:00,55.0,44.0,-100.00,North,-999,-999.0,-999.0,67,0.00,,,0.00,,2013-04-19 03:21:00,
2013-04-18 20:32:00,55.0,44.0,-100.00,North,-999,-999.0,-999.0,67,0.00,,,0.00,,2013-04-19 03:32:00,
2013-04-18 20:43:00,54.0,44.0,-100.00,North,-999,-999.0,-999.0,68,0.00,,,0.00,,2013-04-19 03:43:00,
2013-04-18 21:13:00,54.0,44.0,-100.00,North,-999,-999.0,-999.0,68,0.00,,,0.00,,2013-04-19 04:13:00,
2013-04-18 21:23:00,54.0,44.0,-100.00,North,-999,-999.0,-999.0,68,0.00,,,0.00,,2013-04-19 04:23:00,
2013-04-18 21:32:00,54.0,44.0,-100.00,North,-999,-999.0,-999.0,68,0.00,,,0.00,,2013-04-19 04:32:00,
2013-04-18 22:11:00,51.0,44.0,-100.00,North,-999,-999.0,-999.0,76,0.00,,,0.00,,2013-04-19 05:11:00,
2013-04-18 22:22:00,51.0,44.0,-100.00,North,-999,-999.0,-999.0,76,0.00,,,0.00,,2013-04-19 05:22:00,
2013-04-18 22:32:00,51.0,44.0,-100.00,North,-999,-999.0,-999.0,76,0.00,,,0.00,,2013-04-19 05:32:00,
2013-04-18 22:42:00,51.0,44.0,-100.00,North,-999,-999.0,-999.0,76,0.00,,,0.00,,2013-04-19 05:42:00,
2013-04-18 23:11:00,51.0,44.0,-100.00,North,-999,-999.0,-999.0,77,0.00,,,0.00,,2013-04-19 06:11:00,
2013-04-18 23:22:00,51.0,44.0,-100.00,North,-999,-999.0,-999.0,77,0.00,,,0.00,,2013-04-19 06:22:00,
2013-04-18 23:32:00,51.0,44.0,-100.00,North,-999,-999.0,-999.0,77,0.00,,,0.00,,2013-04-19 06:32:00,
2013-04-18 23:42:00,51.0,44.0,-100.00,North,-999,-999.0,-999.0,77,0.00,,,0.00,,2013-04-19 06:42:00,